sensor_id;sensor_type;location;lat;lon;timestamp;P1;durP1;ratioP1;P2;durP2;ratioP2
42118;SDS011;27783;42.782;23.274;2022-08-19T00:01:57;5.85;;;4.70;;
42118;SDS011;27783;42.782;23.274;2022-08-19T00:04:25;5.07;;;4.68;;
42118;SDS011;27783;42.782;23.274;2022-08-19T00:06:54;7.35;;;4.35;;
42118;SDS011;27783;42.782;23.274;2022-08-19T00:09:22;4.45;;;4.10;;
42118;SDS011;27783;42.782;23.274;2022-08-19T00:11:49;5.07;;;4.57;;
42118;SDS011;27783;42.782;23.274;2022-08-19T00:14:17;4.78;;;4.38;;
42118;SDS011;27783;42.782;23.274;2022-08-19T00:16:44;4.55;;;4.03;;
42118;SDS011;27783;42.782;23.274;2022-08-19T00:19:11;4.80;;;4.18;;
42118;SDS011;27783;42.782;23.274;2022-08-19T00:21:38;5.60;;;4.70;;
42118;SDS011;27783;42.782;23.274;2022-08-19T00:24:08;9.10;;;5.38;;
42118;SDS011;27783;42.782;23.274;2022-08-19T00:26:36;5.72;;;4.60;;
42118;SDS011;27783;42.782;23.274;2022-08-19T00:29:16;5.13;;;4.70;;
42118;SDS011;27783;42.782;23.274;2022-08-19T00:31:44;7.22;;;4.47;;
42118;SDS011;27783;42.782;23.274;2022-08-19T00:34:10;5.25;;;4.85;;
42118;SDS011;27783;42.782;23.274;2022-08-19T00:36:38;5.00;;;4.60;;
42118;SDS011;27783;42.782;23.274;2022-08-19T00:39:05;4.95;;;4.55;;
42118;SDS011;27783;42.782;23.274;2022-08-19T00:41:47;7.78;;;4.97;;
42118;SDS011;27783;42.782;23.274;2022-08-19T00:44:16;5.07;;;4.38;;
42118;SDS011;27783;42.782;23.274;2022-08-19T00:46:48;5.68;;;5.18;;
42118;SDS011;27783;42.782;23.274;2022-08-19T00:49:18;5.47;;;5.05;;
42118;SDS011;27783;42.782;23.274;2022-08-19T00:52:17;5.30;;;4.85;;
42118;SDS011;27783;42.782;23.274;2022-08-19T00:54:49;5.97;;;5.00;;
42118;SDS011;27783;42.782;23.274;2022-08-19T00:57:17;6.28;;;5.65;;
42118;SDS011;27783;42.782;23.274;2022-08-19T00:59:47;5.38;;;4.88;;
42118;SDS011;27783;42.782;23.274;2022-08-19T01:02:19;5.18;;;4.68;;
42118;SDS011;27783;42.782;23.274;2022-08-19T01:04:50;5.72;;;4.90;;
42118;SDS011;27783;42.782;23.274;2022-08-19T01:07:16;8.68;;;5.10;;
42118;SDS011;27783;42.782;23.274;2022-08-19T01:09:43;6.38;;;5.78;;
42118;SDS011;27783;42.782;23.274;2022-08-19T01:12:10;6.00;;;5.47;;
42118;SDS011;27783;42.782;23.274;2022-08-19T01:14:44;5.18;;;4.72;;
42118;SDS011;27783;42.782;23.274;2022-08-19T01:17:24;5.30;;;4.88;;
42118;SDS011;27783;42.782;23.274;2022-08-19T01:19:49;6.00;;;5.50;;
42118;SDS011;27783;42.782;23.274;2022-08-19T01:24:51;6.03;;;5.43;;
42118;SDS011;27783;42.782;23.274;2022-08-19T01:27:17;5.63;;;5.13;;
42118;SDS011;27783;42.782;23.274;2022-08-19T01:29:44;5.95;;;5.40;;
42118;SDS011;27783;42.782;23.274;2022-08-19T01:32:15;6.97;;;6.40;;
42118;SDS011;27783;42.782;23.274;2022-08-19T01:34:41;7.50;;;6.90;;
42118;SDS011;27783;42.782;23.274;2022-08-19T01:37:11;7.32;;;6.82;;
42118;SDS011;27783;42.782;23.274;2022-08-19T01:39:38;6.55;;;6.10;;
42118;SDS011;27783;42.782;23.274;2022-08-19T01:42:05;6.88;;;6.28;;
42118;SDS011;27783;42.782;23.274;2022-08-19T01:44:38;6.45;;;6.00;;
42118;SDS011;27783;42.782;23.274;2022-08-19T01:47:06;6.72;;;6.22;;
42118;SDS011;27783;42.782;23.274;2022-08-19T01:49:34;6.85;;;6.18;;
42118;SDS011;27783;42.782;23.274;2022-08-19T01:51:59;6.30;;;5.90;;
42118;SDS011;27783;42.782;23.274;2022-08-19T01:54:26;6.40;;;5.90;;
42118;SDS011;27783;42.782;23.274;2022-08-19T01:56:53;6.20;;;5.63;;
42118;SDS011;27783;42.782;23.274;2022-08-19T01:59:40;6.35;;;5.75;;
42118;SDS011;27783;42.782;23.274;2022-08-19T02:02:14;6.63;;;6.07;;
42118;SDS011;27783;42.782;23.274;2022-08-19T02:07:07;6.65;;;6.05;;
42118;SDS011;27783;42.782;23.274;2022-08-19T02:09:34;5.63;;;5.22;;
42118;SDS011;27783;42.782;23.274;2022-08-19T02:12:00;5.78;;;5.30;;
42118;SDS011;27783;42.782;23.274;2022-08-19T02:14:27;6.28;;;5.70;;
42118;SDS011;27783;42.782;23.274;2022-08-19T02:17:02;5.63;;;5.15;;
42118;SDS011;27783;42.782;23.274;2022-08-19T02:19:29;6.28;;;5.70;;
42118;SDS011;27783;42.782;23.274;2022-08-19T02:22:03;6.15;;;5.55;;
42118;SDS011;27783;42.782;23.274;2022-08-19T02:24:46;5.40;;;5.00;;
42118;SDS011;27783;42.782;23.274;2022-08-19T02:27:14;7.18;;;5.22;;
42118;SDS011;27783;42.782;23.274;2022-08-19T02:29:41;5.50;;;5.00;;
42118;SDS011;27783;42.782;23.274;2022-08-19T02:32:15;5.80;;;5.30;;
42118;SDS011;27783;42.782;23.274;2022-08-19T02:34:44;5.57;;;5.13;;
42118;SDS011;27783;42.782;23.274;2022-08-19T02:37:11;6.43;;;5.95;;
42118;SDS011;27783;42.782;23.274;2022-08-19T02:39:56;5.32;;;4.93;;
42118;SDS011;27783;42.782;23.274;2022-08-19T02:42:22;5.60;;;5.20;;
42118;SDS011;27783;42.782;23.274;2022-08-19T02:44:47;5.80;;;5.30;;
42118;SDS011;27783;42.782;23.274;2022-08-19T02:47:15;6.18;;;5.78;;
42118;SDS011;27783;42.782;23.274;2022-08-19T02:49:41;6.75;;;6.15;;
42118;SDS011;27783;42.782;23.274;2022-08-19T02:52:07;8.07;;;5.80;;
42118;SDS011;27783;42.782;23.274;2022-08-19T02:54:35;6.15;;;5.65;;
42118;SDS011;27783;42.782;23.274;2022-08-19T02:57:01;6.35;;;5.75;;
42118;SDS011;27783;42.782;23.274;2022-08-19T02:59:32;5.87;;;5.37;;
42118;SDS011;27783;42.782;23.274;2022-08-19T03:01:58;6.35;;;5.80;;
42118;SDS011;27783;42.782;23.274;2022-08-19T03:04:25;6.53;;;5.93;;
42118;SDS011;27783;42.782;23.274;2022-08-19T03:06:52;6.05;;;5.55;;
42118;SDS011;27783;42.782;23.274;2022-08-19T03:09:19;7.97;;;5.82;;
42118;SDS011;27783;42.782;23.274;2022-08-19T03:12:02;12.90;;;6.88;;
42118;SDS011;27783;42.782;23.274;2022-08-19T03:14:30;6.57;;;5.70;;
42118;SDS011;27783;42.782;23.274;2022-08-19T03:16:58;7.10;;;6.40;;
42118;SDS011;27783;42.782;23.274;2022-08-19T03:19:24;7.97;;;5.88;;
42118;SDS011;27783;42.782;23.274;2022-08-19T03:21:51;6.57;;;5.97;;
42118;SDS011;27783;42.782;23.274;2022-08-19T03:24:18;8.00;;;6.10;;
42118;SDS011;27783;42.782;23.274;2022-08-19T03:26:47;6.70;;;6.13;;
42118;SDS011;27783;42.782;23.274;2022-08-19T03:29:14;7.38;;;5.97;;
42118;SDS011;27783;42.782;23.274;2022-08-19T03:31:42;6.55;;;5.97;;
42118;SDS011;27783;42.782;23.274;2022-08-19T03:34:10;6.47;;;5.88;;
42118;SDS011;27783;42.782;23.274;2022-08-19T03:36:39;11.57;;;6.85;;
42118;SDS011;27783;42.782;23.274;2022-08-19T03:39:06;11.57;;;6.75;;
42118;SDS011;27783;42.782;23.274;2022-08-19T03:41:36;8.68;;;6.63;;
42118;SDS011;27783;42.782;23.274;2022-08-19T03:44:02;7.93;;;7.10;;
42118;SDS011;27783;42.782;23.274;2022-08-19T03:46:31;9.85;;;7.25;;
42118;SDS011;27783;42.782;23.274;2022-08-19T03:48:58;8.07;;;7.00;;
42118;SDS011;27783;42.782;23.274;2022-08-19T03:51:28;7.53;;;6.75;;
42118;SDS011;27783;42.782;23.274;2022-08-19T03:53:58;9.32;;;7.13;;
42118;SDS011;27783;42.782;23.274;2022-08-19T03:56:40;8.73;;;7.85;;
42118;SDS011;27783;42.782;23.274;2022-08-19T03:59:08;7.80;;;6.90;;
42118;SDS011;27783;42.782;23.274;2022-08-19T04:01:36;7.65;;;6.78;;
42118;SDS011;27783;42.782;23.274;2022-08-19T04:04:03;7.82;;;7.20;;
42118;SDS011;27783;42.782;23.274;2022-08-19T04:06:30;8.57;;;7.05;;
42118;SDS011;27783;42.782;23.274;2022-08-19T04:08:59;7.65;;;6.97;;
42118;SDS011;27783;42.782;23.274;2022-08-19T04:11:27;7.35;;;6.75;;
42118;SDS011;27783;42.782;23.274;2022-08-19T04:13:55;7.65;;;6.95;;
42118;SDS011;27783;42.782;23.274;2022-08-19T04:16:22;8.70;;;8.00;;
42118;SDS011;27783;42.782;23.274;2022-08-19T04:18:50;10.73;;;7.68;;
42118;SDS011;27783;42.782;23.274;2022-08-19T04:21:23;8.45;;;7.63;;
42118;SDS011;27783;42.782;23.274;2022-08-19T04:23:53;6.95;;;6.25;;
42118;SDS011;27783;42.782;23.274;2022-08-19T04:26:27;7.72;;;7.10;;
42118;SDS011;27783;42.782;23.274;2022-08-19T04:28:57;8.02;;;7.13;;
42118;SDS011;27783;42.782;23.274;2022-08-19T04:31:26;10.57;;;7.68;;
42118;SDS011;27783;42.782;23.274;2022-08-19T04:33:58;33.13;;;10.10;;
42118;SDS011;27783;42.782;23.274;2022-08-19T04:36:26;22.85;;;11.32;;
42118;SDS011;27783;42.782;23.274;2022-08-19T04:38:58;26.05;;;12.15;;
42118;SDS011;27783;42.782;23.274;2022-08-19T04:41:26;27.17;;;20.17;;
42118;SDS011;27783;42.782;23.274;2022-08-19T04:44:11;10.73;;;9.65;;
42118;SDS011;27783;42.782;23.274;2022-08-19T04:46:37;7.55;;;6.95;;
42118;SDS011;27783;42.782;23.274;2022-08-19T04:49:05;7.32;;;6.80;;
42118;SDS011;27783;42.782;23.274;2022-08-19T04:53:58;8.77;;;8.07;;
42118;SDS011;27783;42.782;23.274;2022-08-19T04:56:26;8.90;;;8.10;;
42118;SDS011;27783;42.782;23.274;2022-08-19T04:58:54;9.38;;;8.30;;
42118;SDS011;27783;42.782;23.274;2022-08-19T05:01:25;11.18;;;9.00;;
42118;SDS011;27783;42.782;23.274;2022-08-19T05:03:53;9.38;;;8.50;;
42118;SDS011;27783;42.782;23.274;2022-08-19T05:09:08;9.25;;;7.22;;
42118;SDS011;27783;42.782;23.274;2022-08-19T05:11:34;8.95;;;8.15;;
42118;SDS011;27783;42.782;23.274;2022-08-19T05:14:04;9.20;;;7.90;;
42118;SDS011;27783;42.782;23.274;2022-08-19T05:16:30;8.77;;;8.07;;
42118;SDS011;27783;42.782;23.274;2022-08-19T05:18:58;8.32;;;7.63;;
42118;SDS011;27783;42.782;23.274;2022-08-19T05:21:42;7.88;;;7.28;;
42118;SDS011;27783;42.782;23.274;2022-08-19T05:24:27;7.90;;;7.20;;
42118;SDS011;27783;42.782;23.274;2022-08-19T05:26:54;8.13;;;7.43;;
42118;SDS011;27783;42.782;23.274;2022-08-19T05:29:29;7.38;;;6.78;;
42118;SDS011;27783;42.782;23.274;2022-08-19T05:32:06;11.10;;;7.63;;
42118;SDS011;27783;42.782;23.274;2022-08-19T05:34:36;7.50;;;6.90;;
42118;SDS011;27783;42.782;23.274;2022-08-19T05:37:03;13.57;;;7.88;;
42118;SDS011;27783;42.782;23.274;2022-08-19T05:39:34;10.35;;;7.40;;
42118;SDS011;27783;42.782;23.274;2022-08-19T05:42:11;8.98;;;8.18;;
42118;SDS011;27783;42.782;23.274;2022-08-19T05:44:38;7.22;;;6.60;;
42118;SDS011;27783;42.782;23.274;2022-08-19T05:47:08;9.73;;;7.55;;
42118;SDS011;27783;42.782;23.274;2022-08-19T05:49:36;7.88;;;7.18;;
42118;SDS011;27783;42.782;23.274;2022-08-19T05:52:04;9.00;;;8.10;;
42118;SDS011;27783;42.782;23.274;2022-08-19T05:54:32;7.45;;;6.95;;
42118;SDS011;27783;42.782;23.274;2022-08-19T05:56:58;7.22;;;6.63;;
42118;SDS011;27783;42.782;23.274;2022-08-19T05:59:26;6.95;;;6.50;;
42118;SDS011;27783;42.782;23.274;2022-08-19T06:01:52;7.63;;;7.13;;
42118;SDS011;27783;42.782;23.274;2022-08-19T06:04:21;8.25;;;7.57;;
42118;SDS011;27783;42.782;23.274;2022-08-19T06:06:48;6.90;;;6.32;;
42118;SDS011;27783;42.782;23.274;2022-08-19T06:09:17;7.38;;;6.88;;
42118;SDS011;27783;42.782;23.274;2022-08-19T06:11:46;10.23;;;6.45;;
42118;SDS011;27783;42.782;23.274;2022-08-19T06:14:17;7.70;;;6.65;;
42118;SDS011;27783;42.782;23.274;2022-08-19T06:16:46;7.18;;;6.60;;
42118;SDS011;27783;42.782;23.274;2022-08-19T06:19:14;7.57;;;6.97;;
42118;SDS011;27783;42.782;23.274;2022-08-19T06:21:58;7.85;;;7.15;;
42118;SDS011;27783;42.782;23.274;2022-08-19T06:24:25;7.30;;;6.60;;
42118;SDS011;27783;42.782;23.274;2022-08-19T06:26:56;6.65;;;6.15;;
42118;SDS011;27783;42.782;23.274;2022-08-19T06:29:24;6.57;;;5.93;;
42118;SDS011;27783;42.782;23.274;2022-08-19T06:31:55;7.15;;;6.47;;
42118;SDS011;27783;42.782;23.274;2022-08-19T06:34:25;7.20;;;6.63;;
42118;SDS011;27783;42.782;23.274;2022-08-19T06:39:25;6.93;;;6.32;;
42118;SDS011;27783;42.782;23.274;2022-08-19T06:41:54;6.88;;;5.90;;
42118;SDS011;27783;42.782;23.274;2022-08-19T06:44:21;6.32;;;5.85;;
42118;SDS011;27783;42.782;23.274;2022-08-19T06:46:52;5.82;;;5.30;;
42118;SDS011;27783;42.782;23.274;2022-08-19T06:49:20;6.03;;;5.47;;
42118;SDS011;27783;42.782;23.274;2022-08-19T06:51:47;6.30;;;5.88;;
42118;SDS011;27783;42.782;23.274;2022-08-19T06:54:16;6.15;;;5.55;;
42118;SDS011;27783;42.782;23.274;2022-08-19T06:56:44;6.22;;;5.72;;
42118;SDS011;27783;42.782;23.274;2022-08-19T06:59:12;6.13;;;5.35;;
42118;SDS011;27783;42.782;23.274;2022-08-19T07:01:44;5.50;;;4.97;;
42118;SDS011;27783;42.782;23.274;2022-08-19T07:04:13;6.13;;;5.72;;
42118;SDS011;27783;42.782;23.274;2022-08-19T07:09:06;5.13;;;4.82;;
42118;SDS011;27783;42.782;23.274;2022-08-19T07:11:33;7.23;;;5.50;;
42118;SDS011;27783;42.782;23.274;2022-08-19T07:14:02;6.68;;;5.40;;
42118;SDS011;27783;42.782;23.274;2022-08-19T07:16:51;6.30;;;5.65;;
42118;SDS011;27783;42.782;23.274;2022-08-19T07:19:22;5.53;;;5.13;;
42118;SDS011;27783;42.782;23.274;2022-08-19T07:21:52;5.55;;;5.15;;
42118;SDS011;27783;42.782;23.274;2022-08-19T07:26:45;5.05;;;4.25;;
42118;SDS011;27783;42.782;23.274;2022-08-19T07:29:12;5.05;;;4.68;;
42118;SDS011;27783;42.782;23.274;2022-08-19T07:31:41;8.45;;;5.10;;
42118;SDS011;27783;42.782;23.274;2022-08-19T07:34:09;5.65;;;5.15;;
42118;SDS011;27783;42.782;23.274;2022-08-19T07:36:42;5.55;;;5.03;;
42118;SDS011;27783;42.782;23.274;2022-08-19T07:39:13;4.72;;;4.32;;
42118;SDS011;27783;42.782;23.274;2022-08-19T07:41:42;4.72;;;4.43;;
42118;SDS011;27783;42.782;23.274;2022-08-19T07:44:10;5.27;;;4.87;;
42118;SDS011;27783;42.782;23.274;2022-08-19T07:47:00;7.38;;;4.53;;
42118;SDS011;27783;42.782;23.274;2022-08-19T07:49:29;7.70;;;5.22;;
42118;SDS011;27783;42.782;23.274;2022-08-19T07:52:00;11.23;;;5.07;;
42118;SDS011;27783;42.782;23.274;2022-08-19T07:54:31;11.75;;;5.43;;
42118;SDS011;27783;42.782;23.274;2022-08-19T07:57:02;5.68;;;5.07;;
42118;SDS011;27783;42.782;23.274;2022-08-19T07:59:28;8.60;;;5.33;;
42118;SDS011;27783;42.782;23.274;2022-08-19T08:01:54;6.35;;;5.53;;
42118;SDS011;27783;42.782;23.274;2022-08-19T08:04:21;7.28;;;4.95;;
42118;SDS011;27783;42.782;23.274;2022-08-19T08:07:05;8.57;;;5.43;;
42118;SDS011;27783;42.782;23.274;2022-08-19T08:09:52;7.82;;;5.22;;
42118;SDS011;27783;42.782;23.274;2022-08-19T08:12:22;9.02;;;5.88;;
42118;SDS011;27783;42.782;23.274;2022-08-19T08:14:54;5.95;;;5.38;;
42118;SDS011;27783;42.782;23.274;2022-08-19T08:17:23;5.43;;;4.63;;
42118;SDS011;27783;42.782;23.274;2022-08-19T08:19:51;5.47;;;4.40;;
42118;SDS011;27783;42.782;23.274;2022-08-19T08:22:20;5.72;;;5.22;;
42118;SDS011;27783;42.782;23.274;2022-08-19T08:25:14;6.70;;;4.90;;
42118;SDS011;27783;42.782;23.274;2022-08-19T08:27:42;5.80;;;4.80;;
42118;SDS011;27783;42.782;23.274;2022-08-19T08:30:11;4.78;;;4.38;;
42118;SDS011;27783;42.782;23.274;2022-08-19T08:32:40;4.57;;;4.18;;
42118;SDS011;27783;42.782;23.274;2022-08-19T08:35:07;5.45;;;4.95;;
42118;SDS011;27783;42.782;23.274;2022-08-19T08:37:34;4.63;;;4.13;;
42118;SDS011;27783;42.782;23.274;2022-08-19T08:40:06;4.38;;;3.97;;
42118;SDS011;27783;42.782;23.274;2022-08-19T08:42:59;5.25;;;4.80;;
42118;SDS011;27783;42.782;23.274;2022-08-19T08:45:31;5.63;;;4.40;;
42118;SDS011;27783;42.782;23.274;2022-08-19T08:47:58;6.18;;;4.10;;
42118;SDS011;27783;42.782;23.274;2022-08-19T08:51:21;5.13;;;4.35;;
42118;SDS011;27783;42.782;23.274;2022-08-19T08:54:05;4.13;;;3.72;;
42118;SDS011;27783;42.782;23.274;2022-08-19T08:56:50;4.90;;;4.50;;
42118;SDS011;27783;42.782;23.274;2022-08-19T09:01:53;5.50;;;4.63;;
42118;SDS011;27783;42.782;23.274;2022-08-19T09:04:20;5.88;;;4.00;;
42118;SDS011;27783;42.782;23.274;2022-08-19T09:06:55;4.13;;;3.78;;
42118;SDS011;27783;42.782;23.274;2022-08-19T09:14:48;4.25;;;3.58;;
42118;SDS011;27783;42.782;23.274;2022-08-19T09:17:18;7.43;;;5.22;;
42118;SDS011;27783;42.782;23.274;2022-08-19T09:19:55;13.00;;;11.48;;
42118;SDS011;27783;42.782;23.274;2022-08-19T09:22:33;8.68;;;6.68;;
42118;SDS011;27783;42.782;23.274;2022-08-19T09:25:00;7.85;;;5.60;;
42118;SDS011;27783;42.782;23.274;2022-08-19T09:27:28;10.15;;;9.13;;
42118;SDS011;27783;42.782;23.274;2022-08-19T09:29:55;5.97;;;5.40;;
42118;SDS011;27783;42.782;23.274;2022-08-19T09:32:22;26.55;;;24.42;;
42118;SDS011;27783;42.782;23.274;2022-08-19T09:34:49;11.10;;;8.95;;
42118;SDS011;27783;42.782;23.274;2022-08-19T09:37:14;11.45;;;10.45;;
42118;SDS011;27783;42.782;23.274;2022-08-19T09:39:40;18.25;;;16.80;;
42118;SDS011;27783;42.782;23.274;2022-08-19T09:42:07;9.13;;;7.83;;
42118;SDS011;27783;42.782;23.274;2022-08-19T09:44:39;12.07;;;6.25;;
42118;SDS011;27783;42.782;23.274;2022-08-19T09:47:05;5.72;;;5.13;;
42118;SDS011;27783;42.782;23.274;2022-08-19T09:49:34;5.93;;;3.75;;
42118;SDS011;27783;42.782;23.274;2022-08-19T09:52:00;4.60;;;3.83;;
42118;SDS011;27783;42.782;23.274;2022-08-19T09:54:27;4.40;;;3.43;;
42118;SDS011;27783;42.782;23.274;2022-08-19T09:56:53;6.30;;;5.70;;
42118;SDS011;27783;42.782;23.274;2022-08-19T09:59:21;5.57;;;5.18;;
42118;SDS011;27783;42.782;23.274;2022-08-19T10:04:14;4.60;;;3.40;;
42118;SDS011;27783;42.782;23.274;2022-08-19T10:06:40;5.00;;;3.13;;
42118;SDS011;27783;42.782;23.274;2022-08-19T10:09:07;6.97;;;3.40;;
42118;SDS011;27783;42.782;23.274;2022-08-19T10:11:34;5.35;;;3.15;;
42118;SDS011;27783;42.782;23.274;2022-08-19T10:14:02;4.03;;;3.53;;
42118;SDS011;27783;42.782;23.274;2022-08-19T10:16:31;8.25;;;7.47;;
42118;SDS011;27783;42.782;23.274;2022-08-19T10:19:17;7.47;;;6.88;;
42118;SDS011;27783;42.782;23.274;2022-08-19T10:21:45;6.75;;;6.25;;
42118;SDS011;27783;42.782;23.274;2022-08-19T10:24:10;5.25;;;4.82;;
42118;SDS011;27783;42.782;23.274;2022-08-19T10:26:36;5.65;;;5.18;;
42118;SDS011;27783;42.782;23.274;2022-08-19T10:29:07;6.82;;;5.35;;
42118;SDS011;27783;42.782;23.274;2022-08-19T10:31:33;5.03;;;3.85;;
42118;SDS011;27783;42.782;23.274;2022-08-19T10:34:01;4.30;;;3.90;;
42118;SDS011;27783;42.782;23.274;2022-08-19T10:36:28;4.80;;;4.40;;
42118;SDS011;27783;42.782;23.274;2022-08-19T10:38:57;5.95;;;5.55;;
42118;SDS011;27783;42.782;23.274;2022-08-19T10:41:29;3.92;;;3.53;;
42118;SDS011;27783;42.782;23.274;2022-08-19T10:44:01;11.25;;;3.72;;
42118;SDS011;27783;42.782;23.274;2022-08-19T10:46:31;4.20;;;3.90;;
42118;SDS011;27783;42.782;23.274;2022-08-19T10:48:59;3.73;;;3.37;;
42118;SDS011;27783;42.782;23.274;2022-08-19T10:51:40;5.82;;;3.90;;
42118;SDS011;27783;42.782;23.274;2022-08-19T10:54:24;3.15;;;2.85;;
42118;SDS011;27783;42.782;23.274;2022-08-19T10:57:11;3.90;;;3.50;;
42118;SDS011;27783;42.782;23.274;2022-08-19T10:59:38;3.83;;;2.95;;
42118;SDS011;27783;42.782;23.274;2022-08-19T11:02:06;4.70;;;3.50;;
42118;SDS011;27783;42.782;23.274;2022-08-19T11:04:43;4.60;;;3.25;;
42118;SDS011;27783;42.782;23.274;2022-08-19T11:07:09;7.15;;;3.47;;
42118;SDS011;27783;42.782;23.274;2022-08-19T11:09:39;6.25;;;3.88;;
42118;SDS011;27783;42.782;23.274;2022-08-19T11:12:15;3.75;;;2.88;;
42118;SDS011;27783;42.782;23.274;2022-08-19T11:14:48;6.25;;;3.42;;
42118;SDS011;27783;42.782;23.274;2022-08-19T11:17:15;6.72;;;3.63;;
42118;SDS011;27783;42.782;23.274;2022-08-19T11:19:40;6.90;;;2.92;;
42118;SDS011;27783;42.782;23.274;2022-08-19T11:22:08;3.25;;;2.88;;
42118;SDS011;27783;42.782;23.274;2022-08-19T11:24:36;4.07;;;2.92;;
42118;SDS011;27783;42.782;23.274;2022-08-19T11:27:05;3.95;;;3.30;;
42118;SDS011;27783;42.782;23.274;2022-08-19T11:29:35;3.40;;;3.10;;
42118;SDS011;27783;42.782;23.274;2022-08-19T11:32:20;3.83;;;3.28;;
42118;SDS011;27783;42.782;23.274;2022-08-19T11:34:46;3.95;;;3.55;;
42118;SDS011;27783;42.782;23.274;2022-08-19T11:37:25;4.25;;;3.28;;
42118;SDS011;27783;42.782;23.274;2022-08-19T11:39:51;3.88;;;2.72;;
42118;SDS011;27783;42.782;23.274;2022-08-19T11:42:17;4.53;;;3.30;;
42118;SDS011;27783;42.782;23.274;2022-08-19T11:45:02;3.85;;;3.55;;
42118;SDS011;27783;42.782;23.274;2022-08-19T11:47:30;3.17;;;2.88;;
42118;SDS011;27783;42.782;23.274;2022-08-19T11:49:58;5.68;;;2.88;;
42118;SDS011;27783;42.782;23.274;2022-08-19T11:52:24;4.45;;;3.42;;
42118;SDS011;27783;42.782;23.274;2022-08-19T11:54:53;3.00;;;2.70;;
42118;SDS011;27783;42.782;23.274;2022-08-19T11:57:19;3.38;;;2.78;;
42118;SDS011;27783;42.782;23.274;2022-08-19T11:59:51;3.80;;;3.10;;
42118;SDS011;27783;42.782;23.274;2022-08-19T12:02:17;13.95;;;4.07;;
42118;SDS011;27783;42.782;23.274;2022-08-19T12:04:44;8.75;;;3.55;;
42118;SDS011;27783;42.782;23.274;2022-08-19T12:07:09;4.43;;;2.92;;
42118;SDS011;27783;42.782;23.274;2022-08-19T12:09:35;5.45;;;3.25;;
42118;SDS011;27783;42.782;23.274;2022-08-19T12:12:00;5.55;;;3.15;;
42118;SDS011;27783;42.782;23.274;2022-08-19T12:14:27;4.97;;;2.80;;
42118;SDS011;27783;42.782;23.274;2022-08-19T12:16:56;7.90;;;3.25;;
42118;SDS011;27783;42.782;23.274;2022-08-19T12:19:22;14.20;;;3.72;;
42118;SDS011;27783;42.782;23.274;2022-08-19T12:21:49;5.45;;;3.38;;
42118;SDS011;27783;42.782;23.274;2022-08-19T12:24:16;12.77;;;3.95;;
42118;SDS011;27783;42.782;23.274;2022-08-19T12:26:47;15.63;;;4.20;;
42118;SDS011;27783;42.782;23.274;2022-08-19T12:29:14;8.10;;;3.60;;
42118;SDS011;27783;42.782;23.274;2022-08-19T12:31:40;10.48;;;3.60;;
42118;SDS011;27783;42.782;23.274;2022-08-19T12:34:06;6.40;;;2.85;;
42118;SDS011;27783;42.782;23.274;2022-08-19T12:36:32;7.00;;;3.58;;
42118;SDS011;27783;42.782;23.274;2022-08-19T12:38:58;5.10;;;3.75;;
42118;SDS011;27783;42.782;23.274;2022-08-19T12:41:24;5.47;;;3.00;;
42118;SDS011;27783;42.782;23.274;2022-08-19T12:43:50;4.15;;;2.85;;
42118;SDS011;27783;42.782;23.274;2022-08-19T12:46:15;7.10;;;3.50;;
42118;SDS011;27783;42.782;23.274;2022-08-19T12:48:42;3.60;;;3.30;;
42118;SDS011;27783;42.782;23.274;2022-08-19T12:51:12;4.40;;;2.92;;
42118;SDS011;27783;42.782;23.274;2022-08-19T12:53:39;3.83;;;3.22;;
42118;SDS011;27783;42.782;23.274;2022-08-19T12:56:06;5.35;;;2.92;;
42118;SDS011;27783;42.782;23.274;2022-08-19T12:58:33;3.75;;;2.95;;
42118;SDS011;27783;42.782;23.274;2022-08-19T13:01:05;2.70;;;2.53;;
42118;SDS011;27783;42.782;23.274;2022-08-19T13:03:32;2.90;;;2.70;;
42118;SDS011;27783;42.782;23.274;2022-08-19T13:05:57;3.40;;;3.20;;
42118;SDS011;27783;42.782;23.274;2022-08-19T13:08:23;2.88;;;2.60;;
42118;SDS011;27783;42.782;23.274;2022-08-19T13:10:48;3.50;;;2.85;;
42118;SDS011;27783;42.782;23.274;2022-08-19T13:13:14;5.15;;;2.80;;
42118;SDS011;27783;42.782;23.274;2022-08-19T13:15:40;4.03;;;2.80;;
42118;SDS011;27783;42.782;23.274;2022-08-19T13:18:07;3.22;;;2.60;;
42118;SDS011;27783;42.782;23.274;2022-08-19T13:20:35;4.38;;;2.60;;
42118;SDS011;27783;42.782;23.274;2022-08-19T13:25:27;3.20;;;2.73;;
42118;SDS011;27783;42.782;23.274;2022-08-19T13:27:53;3.07;;;2.63;;
42118;SDS011;27783;42.782;23.274;2022-08-19T13:30:20;4.70;;;3.00;;
42118;SDS011;27783;42.782;23.274;2022-08-19T13:33:05;3.47;;;2.90;;
42118;SDS011;27783;42.782;23.274;2022-08-19T13:35:57;3.17;;;2.88;;
42118;SDS011;27783;42.782;23.274;2022-08-19T13:38:23;6.38;;;2.95;;
42118;SDS011;27783;42.782;23.274;2022-08-19T13:40:50;4.80;;;3.28;;
42118;SDS011;27783;42.782;23.274;2022-08-19T13:43:35;3.15;;;2.65;;
42118;SDS011;27783;42.782;23.274;2022-08-19T13:46:07;10.65;;;3.60;;
42118;SDS011;27783;42.782;23.274;2022-08-19T13:48:49;15.30;;;4.22;;
42118;SDS011;27783;42.782;23.274;2022-08-19T13:51:15;8.82;;;3.72;;
42118;SDS011;27783;42.782;23.274;2022-08-19T13:53:43;7.07;;;3.38;;
42118;SDS011;27783;42.782;23.274;2022-08-19T13:58:55;8.95;;;3.97;;
42118;SDS011;27783;42.782;23.274;2022-08-19T14:01:22;7.30;;;3.43;;
42118;SDS011;27783;42.782;23.274;2022-08-19T14:03:49;12.25;;;3.60;;
42118;SDS011;27783;42.782;23.274;2022-08-19T14:06:16;6.57;;;3.17;;
42118;SDS011;27783;42.782;23.274;2022-08-19T14:08:44;3.90;;;2.40;;
42118;SDS011;27783;42.782;23.274;2022-08-19T14:11:11;3.60;;;2.97;;
42118;SDS011;27783;42.782;23.274;2022-08-19T14:13:36;5.47;;;2.85;;
42118;SDS011;27783;42.782;23.274;2022-08-19T14:16:09;3.22;;;2.75;;
42118;SDS011;27783;42.782;23.274;2022-08-19T14:18:37;7.88;;;2.80;;
42118;SDS011;27783;42.782;23.274;2022-08-19T14:21:04;8.88;;;3.63;;
42118;SDS011;27783;42.782;23.274;2022-08-19T14:23:31;7.13;;;3.97;;
42118;SDS011;27783;42.782;23.274;2022-08-19T14:26:11;13.63;;;3.60;;
42118;SDS011;27783;42.782;23.274;2022-08-19T14:28:39;14.98;;;3.53;;
42118;SDS011;27783;42.782;23.274;2022-08-19T14:31:06;9.77;;;3.58;;
42118;SDS011;27783;42.782;23.274;2022-08-19T14:33:33;6.63;;;3.37;;
42118;SDS011;27783;42.782;23.274;2022-08-19T14:35:58;9.10;;;3.08;;
42118;SDS011;27783;42.782;23.274;2022-08-19T14:38:25;9.32;;;3.10;;
42118;SDS011;27783;42.782;23.274;2022-08-19T14:40:51;4.70;;;3.10;;
42118;SDS011;27783;42.782;23.274;2022-08-19T14:43:17;11.77;;;3.97;;
42118;SDS011;27783;42.782;23.274;2022-08-19T14:45:42;11.23;;;4.05;;
42118;SDS011;27783;42.782;23.274;2022-08-19T14:48:08;14.10;;;3.80;;
42118;SDS011;27783;42.782;23.274;2022-08-19T14:50:34;9.02;;;3.25;;
42118;SDS011;27783;42.782;23.274;2022-08-19T14:53:05;17.15;;;3.88;;
42118;SDS011;27783;42.782;23.274;2022-08-19T14:55:33;9.15;;;3.55;;
42118;SDS011;27783;42.782;23.274;2022-08-19T14:58:01;5.30;;;3.33;;
42118;SDS011;27783;42.782;23.274;2022-08-19T15:00:27;5.45;;;2.40;;
42118;SDS011;27783;42.782;23.274;2022-08-19T15:02:53;8.50;;;3.35;;
42118;SDS011;27783;42.782;23.274;2022-08-19T15:05:19;18.65;;;3.67;;
42118;SDS011;27783;42.782;23.274;2022-08-19T15:07:45;13.20;;;4.10;;
42118;SDS011;27783;42.782;23.274;2022-08-19T15:10:13;29.27;;;5.68;;
42118;SDS011;27783;42.782;23.274;2022-08-19T15:12:39;12.55;;;4.05;;
42118;SDS011;27783;42.782;23.274;2022-08-19T15:15:08;14.77;;;4.38;;
42118;SDS011;27783;42.782;23.274;2022-08-19T15:17:37;21.42;;;4.53;;
42118;SDS011;27783;42.782;23.274;2022-08-19T15:20:04;14.95;;;4.22;;
42118;SDS011;27783;42.782;23.274;2022-08-19T15:22:30;38.30;;;6.28;;